Antonito, CO

10:36 PM MST on December 09, 2016 (GMT -0700)
Fox Creek | | Change Station

Elev 8451 ft 37.07 °N, 106.22 °W | Updated 37 seconds ago

Clear
Clear
22.7 °F
Feels Like 23 °F
N
2.0
Wind Variable Wind from SSW

Today
High -- | Low -- °F
--% Chance of Precip.
Yesterday
High -- | Low -- °F
Precip. -- in
Pressure 30.36 in
Visibility 10.0 miles
Clouds Clear
Windchill 23 °F
Dew Point 16 °F
Humidity 78%
Rainfall 0.00 in
Snow Depth Not available.
7:06 AM 4:47 PM
Waxing Gibbous, 80% visible
METAR KALS 100452Z AUTO 05003KT 10SM CLR M07/M11 A3024 RMK AO2 SLP280 T10721106
Pressure 30.36 in
Visibility 10.0 miles
Clouds Clear
Windchill 23 °F
Dew Point 16 °F
Humidity 78%
Rainfall 0.00 in
Snow Depth Not available.
7:06 AM 4:47 PM
Waxing Gibbous, 80% visible
METAR KALS 100452Z AUTO 05003KT 10SM CLR M07/M11 A3024 RMK AO2 SLP280 T10721106

10-Day Weather Forecast

Almanac

Astronomy

Dec. 09, 2016 Rise Set
Actual Time
Civil Twilight
Nautical Twilight
Astronomical Twilight
Moon
Length of Visible Light
Length of Day
Tomorrow will be .
, % of the Moon is Illuminated

Today's Extremes

State Highs State Lows

Community

WunderPhotos

Upload Photos

1,956,529 photos uploaded!

WunderBlog® & News

Nearby

Air Quality

  Air Quality AQ Index Pollutant
Not available.

Snow Depth

Station Depth Elevation

Earthquake Activity

City Distance Mag. Time & Date
Minimum magnitude displayed is 2.5.

Coastal Water Temperatures

Place Temperature

Stations

Nearby Weather Stations

Station Location Temp. Windchill Dew Point Humidity Wind Precip. Elev Updated Type
                   

Watches & Warnings

There are currently no watches in effect.